Weather at Read Seaplane Base

Public forecast

Using degrees Fahrenheit for public forecast. Weather courtesy of forecast.io.

Closest aviation weather report (METAR) to Read Seaplane Base

Closest report is Luce County Airport, 16.4 nm (30.3 km) ENE. Retrieved 2021/10/25 14:35 UTC (39 minutes ago):

KERY 251435Z AUTO 35004KT 10SM OVC021 04/02 A3013 RMK AO2 T00350022

Closest aviation forecast (TAF) to Read Seaplane Base

Closest forecast is Pellston Regional Airport of Emmet County Airport, 55.0 nm (101.9 km) SE. Retrieved 2021/10/25 12:40 UTC (3 hours ago):

TAF KPLN 251138Z 2512/2612 05011KT P6SM OVC035 FM251500 05012G23KT P6SM OVC022 FM252200 04009KT P6SM OVC035 FM260000 03008KT P6SM BKN060